Time;durP1;ratioP1;P1;durP2;ratioP2;P2;SDS_P1;SDS_P2;PMS_P1;PMS_P2;Temp;Humidity;BMP_temperature;BMP_pressure;BME280_temperature;BME280_humidity;BME280_pressure;Samples;Min_cycle;Max_cycle;Signal;HPM_P1;HPM_P2
2021/12/10 15:16:36;;;;;;;4.03;3.13;;;;;;;;;;6192936;22;20352;31
2021/12/10 15:19:06;;;;;;;6.13;3.28;;;;;;;;;;6118466;23;20025;-81
2021/12/10 15:21:41;;;;;;;;;;;;;;;;;;6127765;23;20037;-81
2021/12/10 15:24:12;;;;;;;5.13;3.88;;;;;;;;;;6127228;23;19913;-79
2021/12/10 15:26:49;;;;;;;5.45;4.05;;;;;;;;;;6127001;23;20013;-79
2021/12/10 15:29:32;;;;;;;6.28;3.92;;;;;;;;;;6127594;23;20006;-81
2021/12/10 15:32:20;;;;;;;8.88;4.47;;;;;;;;;;6127386;23;20057;-79
2021/12/10 15:34:51;;;;;;;6.35;4.10;;;;;;;;;;6110590;23;20006;-79
2021/12/10 15:37:20;;;;;;;6.60;3.63;;;;;;;;;;6127129;23;20017;-80
2021/12/10 15:39:49;;;;;;;6.28;3.80;;;;;;;;;;6127611;23;20006;-80
2021/12/10 15:42:24;;;;;;;9.35;4.53;;;;;;;;;;6127393;23;20016;-82
2021/12/10 15:44:50;;;;;;;4.38;3.53;;;;;;;;;;6127421;23;20077;-80
2021/12/10 15:47:18;;;;;;;5.13;3.75;;;;;;;;;;6127231;23;20369;-80
2021/12/10 15:49:45;;;;;;;4.55;3.42;;;;;;;;;;6126008;23;20056;-82
2021/12/10 15:52:15;;;;;;;5.38;4.00;;;;;;;;;;6127124;23;20045;-80
2021/12/10 15:54:45;;;;;;;;;;;;;;;;;;6127810;23;20002;-80
2021/12/10 15:57:19;;;;;;;5.72;4.90;;;;;;;;;;6127506;23;19909;-81
2021/12/10 15:59:46;;;;;;;6.57;5.28;;;;;;;;;;6125955;23;20088;-80
2021/12/10 16:02:17;;;;;;;5.90;4.60;;;;;;;;;;6126853;23;20033;-81
2021/12/10 16:04:46;;;;;;;5.13;4.22;;;;;;;;;;6127142;23;20014;-81
2021/12/10 16:07:18;;;;;;;4.50;3.58;;;;;;;;;;6127220;23;20002;-81
2021/12/10 16:09:45;;;;;;;5.35;3.92;;;;;;;;;;6127342;23;20006;-82
2021/12/10 16:12:17;;;;;;;4.68;3.40;;;;;;;;;;6126712;23;19998;-81
2021/12/10 16:14:44;;;;;;;3.95;3.55;;;;;;;;;;6127057;23;20028;-83
2021/12/10 16:17:12;;;;;;;5.45;3.65;;;;;;;;;;6138761;23;20013;-82
2021/12/10 16:19:39;;;;;;;5.00;3.95;;;;;;;;;;6156331;23;19997;-80
2021/12/10 16:22:21;;;;;;;4.75;4.10;;;;;;;;;;6156207;23;20002;-81
2021/12/10 16:24:53;;;;;;;4.43;3.70;;;;;;;;;;6156405;23;20012;-81
2021/12/10 16:27:50;;;;;;;5.13;3.85;;;;;;;;;;6156201;23;20025;-81
2021/12/10 16:30:28;;;;;;;5.20;3.85;;;;;;;;;;6156100;23;20426;-82
2021/12/10 16:32:55;;;;;;;5.68;4.25;;;;;;;;;;6156319;23;20005;-82
2021/12/10 16:35:26;;;;;;;8.85;4.40;;;;;;;;;;6156122;23;20009;-82
2021/12/10 16:37:53;;;;;;;5.28;3.78;;;;;;;;;;6156278;23;20044;-82
2021/12/10 16:40:23;;;;;;;4.90;4.05;;;;;;;;;;6156033;23;20053;-82
2021/12/10 16:42:54;;;;;;;7.05;3.72;;;;;;;;;;6156311;23;20414;-82
2021/12/10 16:45:25;;;;;;;4.63;3.63;;;;;;;;;;6156163;23;20417;-81
2021/12/10 16:47:52;;;;;;;6.95;4.72;;;;;;;;;;6155941;23;20006;-82
2021/12/10 16:50:19;;;;;;;6.25;4.13;;;;;;;;;;6156039;23;20001;-80
2021/12/10 16:52:45;;;;;;;6.70;4.03;;;;;;;;;;6156407;23;20016;-80
2021/12/10 16:55:18;;;;;;;4.78;4.30;;;;;;;;;;6156128;23;20029;-82
2021/12/10 16:57:45;;;;;;;7.60;4.60;;;;;;;;;;6156188;23;20329;-81
2021/12/10 17:00:32;;;;;;;5.65;3.95;;;;;;;;;;6155912;23;20001;-81
2021/12/10 17:02:57;;;;;;;4.55;3.55;;;;;;;;;;6154338;23;20013;-81
2021/12/10 17:05:28;;;;;;;7.95;5.50;;;;;;;;;;6154296;23;20421;-81
2021/12/10 17:07:56;;;;;;;5.45;4.60;;;;;;;;;;6155209;23;20025;-81
2021/12/10 17:10:29;;;;;;;4.90;4.03;;;;;;;;;;6154998;23;20053;-81
2021/12/10 17:13:03;;;;;;;21.70;17.00;;;;;;;;;;6155910;23;20014;-81
2021/12/10 17:15:29;;;;;;;7.10;6.00;;;;;;;;;;6155766;23;20392;-81
2021/12/10 17:18:01;;;;;;;4.68;3.70;;;;;;;;;;6156015;23;20021;-82
2021/12/10 17:20:33;;;;;;;4.55;4.10;;;;;;;;;;6155574;23;20017;-80
2021/12/10 17:23:05;;;;;;;5.70;3.20;;;;;;;;;;6156203;23;20017;-81
2021/12/10 17:25:36;;;;;;;5.85;4.38;;;;;;;;;;6155748;23;20033;-80
2021/12/10 17:28:07;;;;;;;8.10;5.57;;;;;;;;;;6155945;23;20009;-80
2021/12/10 17:30:36;;;;;;;5.55;3.88;;;;;;;;;;6155752;23;20456;-82
2021/12/10 17:33:07;;;;;;;8.18;5.80;;;;;;;;;;6155829;23;20016;-85
2021/12/10 17:35:37;;;;;;;9.13;5.78;;;;;;;;;;6155759;23;20005;-85
2021/12/10 17:38:07;;;;;;;8.60;5.03;;;;;;;;;;6154407;23;20451;-83
2021/12/10 17:41:04;;;;;;;5.25;4.35;;;;;;;;;;6157218;23;20002;-82
2021/12/10 17:43:34;;;;;;;9.45;6.10;;;;;;;;;;6157712;23;20001;-83
2021/12/10 17:46:11;;;;;;;7.82;4.28;;;;;;;;;;6157672;23;20398;-85
2021/12/10 17:48:41;;;;;;;5.95;3.97;;;;;;;;;;6157376;23;20010;-84
2021/12/10 17:51:11;;;;;;;;;;;;;;;;;;6156459;23;20009;-84
2021/12/10 17:53:39;;;;;;;;;;;;;;;;;;6157725;23;19990;-84
2021/12/10 17:56:05;;;;;;;8.73;5.90;;;;;;;;;;6157640;23;19908;-83
2021/12/10 17:58:34;;;;;;;7.55;6.78;;;;;;;;;;6155852;23;20005;-83
2021/12/10 18:01:14;;;;;;;11.55;8.48;;;;;;;;;;6157616;23;20032;-84
2021/12/10 18:03:50;;;;;;;25.75;20.30;;;;;;;;;;6157802;23;20063;-84
2021/12/10 18:06:19;;;;;;;14.40;12.82;;;;;;;;;;6157336;23;20080;-84
2021/12/10 18:08:45;;;;;;;10.63;9.00;;;;;;;;;;6157178;23;20002;-86
2021/12/10 18:11:13;;;;;;;5.53;4.90;;;;;;;;;;6157678;23;20417;-83
2021/12/10 18:13:43;;;;;;;7.28;4.97;;;;;;;;;;6157387;23;20409;-83
2021/12/10 18:16:25;;;;;;;6.68;4.88;;;;;;;;;;6157641;23;20001;-84
2021/12/10 18:18:53;;;;;;;7.20;5.07;;;;;;;;;;6127687;23;20072;-84
2021/12/10 18:21:27;;;;;;;6.22;4.53;;;;;;;;;;6127688;23;20456;-86
2021/12/10 18:24:03;;;;;;;5.20;3.88;;;;;;;;;;6101750;23;20021;-83
2021/12/10 18:26:36;;;;;;;6.72;4.45;;;;;;;;;;6101757;23;20093;-86
2021/12/10 18:29:09;;;;;;;5.70;4.20;;;;;;;;;;6127739;23;20002;-83
2021/12/10 18:31:40;;;;;;;7.50;5.47;;;;;;;;;;6101539;23;20422;-85
2021/12/10 18:34:11;;;;;;;10.02;6.50;;;;;;;;;;6127645;23;20085;-84
2021/12/10 18:36:36;;;;;;;14.35;8.77;;;;;;;;;;6127314;23;20065;-83
2021/12/10 18:39:14;;;;;;;11.63;7.07;;;;;;;;;;6127861;23;19998;-83
2021/12/10 18:41:44;;;;;;;8.13;4.07;;;;;;;;;;6127814;23;20009;-83
2021/12/10 18:44:10;;;;;;;10.93;6.82;;;;;;;;;;6127819;23;20009;-83
2021/12/10 18:46:37;;;;;;;11.48;7.00;;;;;;;;;;6127170;23;20017;-84
2021/12/10 18:49:05;;;;;;;14.13;9.48;;;;;;;;;;6127667;23;20032;-85
2021/12/10 18:51:41;;;;;;;23.10;10.13;;;;;;;;;;6127450;23;20013;-83
2021/12/10 18:54:17;;;;;;;15.05;8.38;;;;;;;;;;6127447;23;20101;-83
2021/12/10 18:56:48;;;;;;;11.00;6.68;;;;;;;;;;6101659;23;20033;-82
2021/12/10 18:59:22;;;;;;;5.22;3.60;;;;;;;;;;6127336;23;20418;-83
2021/12/10 19:02:02;;;;;;;5.47;3.33;;;;;;;;;;6127003;23;20060;-84
2021/12/10 19:04:32;;;;;;;8.48;5.80;;;;;;;;;;6127700;23;20002;-84
2021/12/10 19:07:03;;;;;;;;;;;;;;;;;;6127716;23;20010;-84
2021/12/10 19:09:36;;;;;;;5.30;3.13;;;;;;;;;;6127410;23;20321;-83
2021/12/10 19:12:28;;;;;;;5.60;3.33;;;;;;;;;;6100918;23;20006;-83
2021/12/10 19:15:00;;;;;;;4.70;3.70;;;;;;;;;;6127569;23;20046;-84
2021/12/10 19:17:34;;;;;;;7.40;4.50;;;;;;;;;;6126581;23;20016;-83
2021/12/10 19:20:15;;;;;;;7.75;6.22;;;;;;;;;;6156910;23;20001;-83
2021/12/10 19:22:44;;;;;;;12.88;8.43;;;;;;;;;;6156822;23;20012;-85
2021/12/10 19:25:14;;;;;;;11.57;7.37;;;;;;;;;;6157137;23;20001;-83
2021/12/10 19:28:02;;;;;;;9.52;6.80;;;;;;;;;;6156058;23;20280;-83
2021/12/10 19:30:33;;;;;;;8.80;5.45;;;;;;;;;;6156839;23;20020;-83
2021/12/10 19:33:05;;;;;;;9.50;5.70;;;;;;;;;;6156728;23;20055;-82
2021/12/10 19:35:40;;;;;;;9.90;7.20;;;;;;;;;;6156694;23;20081;-82
2021/12/10 19:38:21;;;;;;;10.93;6.43;;;;;;;;;;6156951;23;20002;-82
2021/12/10 19:40:54;;;;;;;15.82;7.05;;;;;;;;;;6157023;23;20001;-82
2021/12/10 19:43:34;;;;;;;11.48;6.85;;;;;;;;;;6156898;23;20068;-82
2021/12/10 19:46:14;;;;;;;6.20;4.47;;;;;;;;;;6155351;23;20006;-84
2021/12/10 19:49:08;;;;;;;9.55;4.78;;;;;;;;;;6156821;23;20433;-84
2021/12/10 19:51:47;;;;;;;7.85;4.20;;;;;;;;;;6155362;23;20406;-82
2021/12/10 19:54:18;;;;;;;7.18;4.38;;;;;;;;;;6156916;23;20001;-83
2021/12/10 19:56:58;;;;;;;6.15;3.90;;;;;;;;;;6156820;23;20033;-83
2021/12/10 19:59:29;;;;;;;7.03;5.03;;;;;;;;;;6156668;23;20449;-83
2021/12/10 20:02:25;;;;;;;6.93;4.60;;;;;;;;;;6156727;23;20361;-83
2021/12/10 20:05:14;;;;;;;9.10;4.60;;;;;;;;;;6155139;23;20048;-83
2021/12/10 20:07:46;;;;;;;7.70;5.50;;;;;;;;;;6156530;23;20076;-85
2021/12/10 20:10:43;;;;;;;6.05;4.30;;;;;;;;;;6156727;23;20426;-83
2021/12/10 20:13:14;;;;;;;8.40;4.57;;;;;;;;;;6138444;23;20009;-84
2021/12/10 20:15:55;;;;;;;4.40;3.55;;;;;;;;;;6154918;23;20010;-83
2021/12/10 20:18:47;;;;;;;7.05;3.88;;;;;;;;;;6156416;23;20009;-84
2021/12/10 20:21:13;;;;;;;6.10;4.15;;;;;;;;;;6146634;23;20425;-86
2021/12/10 20:23:47;;;;;;;7.05;3.58;;;;;;;;;;6156776;23;20013;-85
2021/12/10 20:26:19;;;;;;;6.28;4.60;;;;;;;;;;6156367;23;20004;-85
2021/12/10 20:28:51;;;;;;;11.82;7.03;;;;;;;;;;6155113;23;20005;-84
2021/12/10 20:31:28;;;;;;;58.13;30.40;;;;;;;;;;6156746;23;20373;-87
2021/12/10 20:34:00;;;;;;;49.88;22.63;;;;;;;;;;6156695;23;20033;-90
2021/12/10 20:36:52;;;;;;;26.20;13.00;;;;;;;;;;6156643;23;20002;-88
2021/12/10 20:39:27;;;;;;;16.77;8.88;;;;;;;;;;6156857;23;20005;-85
2021/12/10 20:42:00;;;;;;;10.50;5.65;;;;;;;;;;6156578;23;20001;-88
2021/12/10 20:44:36;;;;;;;11.43;5.55;;;;;;;;;;6156737;23;20006;-85
2021/12/10 20:47:08;;;;;;;7.47;4.43;;;;;;;;;;6156555;23;20002;-86
2021/12/10 20:49:43;;;;;;;8.55;4.50;;;;;;;;;;6155085;23;20012;-85
2021/12/10 20:52:21;;;;;;;6.05;4.30;;;;;;;;;;6154925;23;20012;-87
2021/12/10 20:54:50;;;;;;;6.65;4.30;;;;;;;;;;6154996;23;20436;-84
2021/12/10 20:57:20;;;;;;;6.72;4.47;;;;;;;;;;6156625;23;20005;-83
2021/12/10 20:59:54;;;;;;;4.90;4.35;;;;;;;;;;6156564;23;20005;-83
2021/12/10 21:02:32;;;;;;;7.07;4.32;;;;;;;;;;6154656;23;20105;-84
2021/12/10 21:05:32;;;;;;;6.78;4.95;;;;;;;;;;6156458;23;20033;-84
2021/12/10 21:08:04;;;;;;;7.07;4.95;;;;;;;;;;6149160;23;20009;-83
2021/12/10 21:10:41;;;;;;;9.38;5.38;;;;;;;;;;6156333;23;20432;-83
2021/12/10 21:13:08;;;;;;;6.97;4.55;;;;;;;;;;6156016;23;20033;-84
2021/12/10 21:15:52;;;;;;;8.80;5.00;;;;;;;;;;6156377;23;19998;-84
2021/12/10 21:18:20;;;;;;;6.85;4.55;;;;;;;;;;6154505;23;20029;-84
2021/12/10 21:20:52;;;;;;;6.15;4.10;;;;;;;;;;6154696;23;20006;-84
2021/12/10 21:23:22;;;;;;;7.10;5.05;;;;;;;;;;6156205;23;20005;-83
2021/12/10 21:25:57;;;;;;;;;;;;;;;;;;6155101;23;20067;-84
2021/12/10 21:28:34;;;;;;;5.45;4.00;;;;;;;;;;6154523;23;19912;-84
2021/12/10 21:31:15;;;;;;;9.98;5.15;;;;;;;;;;6154726;23;20004;-83
2021/12/10 21:33:50;;;;;;;9.40;5.78;;;;;;;;;;6156144;23;20014;-83
2021/12/10 21:36:34;;;;;;;6.50;4.80;;;;;;;;;;6156459;23;20311;-83
2021/12/10 21:39:08;;;;;;;7.55;4.50;;;;;;;;;;6155066;23;20006;-84
2021/12/10 21:41:38;;;;;;;7.15;4.13;;;;;;;;;;6156950;23;20025;-84
2021/12/10 21:44:10;;;;;;;5.90;4.13;;;;;;;;;;6158051;23;20005;-85
2021/12/10 21:46:40;;;;;;;21.88;11.93;;;;;;;;;;6158430;23;20012;-87
2021/12/10 21:49:08;;;;;;;;;;;;;;;;;;6159448;23;19998;-90
2021/12/10 21:52:06;;;;;;;5.65;4.40;;;;;;;;;;6156919;23;19984;-85
2021/12/10 21:54:45;;;;;;;5.90;4.72;;;;;;;;;;6132806;23;20385;-88
2021/12/10 21:57:14;;;;;;;7.55;4.70;;;;;;;;;;6155055;23;20010;-85
2021/12/10 21:59:53;;;;;;;9.63;8.20;;;;;;;;;;6155354;23;20005;-87
2021/12/10 22:02:25;;;;;;;8.20;5.32;;;;;;;;;;6156512;23;20228;-87
2021/12/10 22:04:56;;;;;;;7.63;5.72;;;;;;;;;;6156370;23;20001;-84
2021/12/10 22:07:29;;;;;;;5.43;3.95;;;;;;;;;;6156129;23;20303;-84
2021/12/10 22:10:07;;;;;;;4.43;3.83;;;;;;;;;;6156616;23;20336;-83
2021/12/10 22:12:41;;;;;;;6.72;4.18;;;;;;;;;;6155762;23;20425;-84
2021/12/10 22:15:17;;;;;;;5.35;4.30;;;;;;;;;;6155850;23;20056;-82
2021/12/10 22:17:48;;;;;;;8.73;5.40;;;;;;;;;;6155641;23;20098;-83
2021/12/10 22:20:23;;;;;;;7.10;4.68;;;;;;;;;;6154526;23;20067;-83
2021/12/10 22:22:49;;;;;;;6.22;4.60;;;;;;;;;;6154123;23;20033;-84
2021/12/10 22:25:30;;;;;;;7.70;4.30;;;;;;;;;;6154229;23;20076;-83
2021/12/10 22:27:57;;;;;;;7.47;4.43;;;;;;;;;;6157654;23;20010;-85
2021/12/10 22:30:31;;;;;;;6.22;3.83;;;;;;;;;;6157750;23;20333;-86
2021/12/10 22:33:01;;;;;;;5.60;3.88;;;;;;;;;;6157494;23;20064;-87
2021/12/10 22:35:41;;;;;;;5.05;3.78;;;;;;;;;;6157609;23;20177;-83
2021/12/10 22:38:15;;;;;;;5.75;3.97;;;;;;;;;;6155890;23;20044;-83
2021/12/10 22:41:09;;;;;;;6.15;3.22;;;;;;;;;;6157417;23;20413;-85
2021/12/10 22:43:48;;;;;;;7.60;3.70;;;;;;;;;;6157564;23;20001;-84
2021/12/10 22:46:18;;;;;;;5.68;3.65;;;;;;;;;;6157514;23;20139;-84
2021/12/10 22:48:49;;;;;;;6.03;3.38;;;;;;;;;;6157475;23;20008;-85
2021/12/10 22:51:25;;;;;;;6.57;3.80;;;;;;;;;;6157489;23;20328;-84
2021/12/10 22:53:57;;;;;;;5.10;3.38;;;;;;;;;;6157720;23;20033;-84
2021/12/10 22:56:29;;;;;;;4.85;3.80;;;;;;;;;;6155869;23;20387;-87
2021/12/10 22:59:04;;;;;;;6.05;3.70;;;;;;;;;;6157441;23;20028;-85
2021/12/10 23:01:50;;;;;;;5.55;3.70;;;;;;;;;;6155855;23;20333;-85
2021/12/10 23:04:37;;;;;;;4.10;3.10;;;;;;;;;;6157473;23;20321;-86
2021/12/10 23:07:26;;;;;;;6.95;4.32;;;;;;;;;;6157239;23;20299;-87
2021/12/10 23:09:54;;;;;;;6.28;3.97;;;;;;;;;;6157438;23;20025;-86
2021/12/10 23:12:25;;;;;;;5.78;3.40;;;;;;;;;;6157173;23;20009;-86
2021/12/10 23:15:19;;;;;;;5.70;3.58;;;;;;;;;;6157201;23;20005;-87
2021/12/10 23:18:14;;;;;;;5.45;3.65;;;;;;;;;;6154999;23;20449;-86
2021/12/10 23:20:39;;;;;;;4.70;3.58;;;;;;;;;;6152490;23;20010;-85
2021/12/10 23:23:05;;;;;;;5.43;3.67;;;;;;;;;;6157074;23;20444;-85
2021/12/10 23:25:39;;;;;;;4.88;3.70;;;;;;;;;;6156669;23;19997;-87
2021/12/10 23:28:10;;;;;;;5.38;3.97;;;;;;;;;;6156995;23;20052;-85
2021/12/10 23:30:45;;;;;;;5.53;3.78;;;;;;;;;;6156963;23;20076;-85
2021/12/10 23:33:20;;;;;;;6.43;3.28;;;;;;;;;;6157272;23;20005;-84
2021/12/10 23:35:51;;;;;;;4.95;3.50;;;;;;;;;;6155499;23;20356;-86
2021/12/10 23:38:24;;;;;;;4.80;3.90;;;;;;;;;;6155386;23;20088;-85
2021/12/10 23:41:15;;;;;;;4.60;3.25;;;;;;;;;;6155543;23;20016;-86
